Time;durP1;ratioP1;P1;durP2;ratioP2;P2;SDS_P1;SDS_P2;PMS_P1;PMS_P2;Temp;Humidity;BMP_temperature;BMP_pressure;BME280_temperature;BME280_humidity;BME280_pressure;Samples;Min_cycle;Max_cycle;Signal;HPM_P1;HPM_P2
2021/05/27 00:00:58;;;;;;;6.47;4.38;;;;;;;9.70;100.00;100591.91;5034576;28;20048;-64
2021/05/27 00:03:42;;;;;;;6.05;4.40;;;;;;;9.74;100.00;100593.31;5035602;28;20509;-64
2021/05/27 00:06:26;;;;;;;5.72;3.80;;;;;;;9.71;100.00;100585.59;5035692;28;20525;-64
2021/05/27 00:09:10;;;;;;;6.15;4.18;;;;;;;9.75;100.00;100593.19;5035432;28;20050;-64
2021/05/27 00:11:55;;;;;;;5.40;4.50;;;;;;;9.72;100.00;100587.28;5034779;28;20051;-64
2021/05/27 00:14:39;;;;;;;7.03;4.75;;;;;;;9.71;100.00;100588.25;5035350;28;20048;-64
2021/05/27 00:17:23;;;;;;;6.07;3.95;;;;;;;9.71;100.00;100589.13;5034306;28;20068;-64
2021/05/27 00:20:08;;;;;;;4.45;3.83;;;;;;;9.65;100.00;100594.97;5034467;28;20552;-64
2021/05/27 00:22:52;;;;;;;7.35;3.67;;;;;;;9.66;100.00;100603.75;5035273;28;20430;-63
2021/05/27 00:25:36;;;;;;;5.65;3.83;;;;;;;9.64;100.00;100605.72;5034295;28;20119;-61
2021/05/27 00:28:20;;;;;;;6.68;3.38;;;;;;;9.60;100.00;100598.97;5034466;28;20048;-64
2021/05/27 00:31:04;;;;;;;7.47;3.90;;;;;;;9.58;100.00;100596.44;5034666;28;20449;-64
2021/05/27 00:33:49;;;;;;;6.80;3.97;;;;;;;9.59;100.00;100602.63;5034163;28;20056;-64
2021/05/27 00:36:32;;;;;;;8.23;3.75;;;;;;;9.56;100.00;100608.22;5033965;28;20078;-64
2021/05/27 00:39:16;;;;;;;5.25;3.80;;;;;;;9.50;100.00;100603.41;5035063;28;20056;-63
2021/05/27 00:42:00;;;;;;;5.78;4.22;;;;;;;9.48;100.00;100616.00;5034164;28;20501;-64
2021/05/27 00:45:00;;;;;;;6.07;4.10;;;;;;;9.43;100.00;100612.84;5034869;28;20509;-64
2021/05/27 00:47:45;;;;;;;6.57;3.83;;;;;;;9.40;100.00;100615.78;5033712;28;20410;-64
2021/05/27 00:50:29;;;;;;;5.43;4.28;;;;;;;9.39;100.00;100622.09;5019961;28;20449;-64
2021/05/27 00:53:13;;;;;;;4.82;3.90;;;;;;;9.37;100.00;100616.06;5033800;28;20184;-64
2021/05/27 00:55:57;;;;;;;6.50;3.75;;;;;;;9.36;100.00;100622.34;5034613;28;20136;-64
2021/05/27 00:58:43;;;;;;;8.63;3.88;;;;;;;9.30;100.00;100617.53;5019313;28;20216;-61
2021/05/27 01:01:26;;;;;;;9.20;4.13;;;;;;;9.33;100.00;100623.44;5034466;28;20469;-64
2021/05/27 01:04:10;;;;;;;4.63;3.63;;;;;;;9.31;100.00;100624.53;5033743;28;20106;-64
2021/05/27 01:06:55;;;;;;;7.03;4.13;;;;;;;9.32;100.00;100631.53;5033671;28;20122;-64
2021/05/27 01:09:41;;;;;;;6.75;3.70;;;;;;;9.36;100.00;100625.00;5034575;28;20103;-64
2021/05/27 01:12:25;;;;;;;7.20;3.67;;;;;;;9.38;100.00;100631.03;5033322;28;20103;-64
2021/05/27 01:15:30;;;;;;;6.15;4.18;;;;;;;9.40;100.00;100637.06;5019090;28;20049;-64
2021/05/27 01:18:17;;;;;;;5.00;3.60;;;;;;;9.40;100.00;100629.09;5034106;28;20548;-64
2021/05/27 01:21:01;;;;;;;4.30;3.72;;;;;;;9.42;100.00;100628.00;5034409;28;20175;-62
2021/05/27 01:23:45;;;;;;;6.10;3.83;;;;;;;9.41;100.00;100631.63;5034430;28;20044;-64
2021/05/27 01:26:29;;;;;;;5.68;3.92;;;;;;;9.36;100.00;100635.66;5019266;28;20087;-63
2021/05/27 01:29:12;;;;;;;6.65;3.88;;;;;;;9.30;100.00;100636.16;5032960;28;20087;-64
2021/05/27 01:31:58;;;;;;;4.95;3.85;;;;;;;9.25;100.00;100633.00;5032945;28;20480;-64
2021/05/27 01:34:42;;;;;;;5.10;4.18;;;;;;;9.23;100.00;100642.94;5032916;28;20095;-64
2021/05/27 01:37:26;;;;;;;;;;;;;;;9.18;100.00;100643.31;5033436;28;20128;-64
2021/05/27 01:40:11;;;;;;;6.50;4.27;;;;;;;9.16;100.00;100639.94;5033021;28;19924;-64
2021/05/27 01:42:56;;;;;;;4.57;3.65;;;;;;;9.16;100.00;100641.78;5019158;28;20091;-64
2021/05/27 01:45:40;;;;;;;6.60;4.53;;;;;;;9.14;100.00;100639.22;5033737;28;20078;-63
2021/05/27 01:48:24;;;;;;;7.43;4.93;;;;;;;9.12;100.00;100635.00;5033832;28;20513;-64
2021/05/27 01:51:09;;;;;;;5.97;4.25;;;;;;;9.08;100.00;100637.06;5032841;28;20045;-64
2021/05/27 01:53:52;;;;;;;5.10;4.25;;;;;;;9.07;100.00;100640.69;5033773;28;20048;-63
2021/05/27 01:56:37;;;;;;;7.63;3.90;;;;;;;9.02;100.00;100639.38;5033790;28;20140;-64
2021/05/27 01:59:21;;;;;;;6.30;4.82;;;;;;;8.99;100.00;100635.16;5032537;28;20091;-64
2021/05/27 02:02:05;;;;;;;7.80;4.55;;;;;;;9.00;100.00;100638.66;5032739;28;20116;-64
2021/05/27 02:04:49;;;;;;;6.78;4.63;;;;;;;8.94;100.00;100637.34;5033674;28;20128;-64
2021/05/27 02:07:33;;;;;;;6.93;5.00;;;;;;;8.93;100.00;100645.44;5033303;28;20044;-63
2021/05/27 02:10:17;;;;;;;7.88;4.88;;;;;;;8.89;100.00;100644.88;5033826;28;20087;-64
2021/05/27 02:13:01;;;;;;;9.50;5.32;;;;;;;8.87;100.00;100638.00;5032533;28;20060;-64
2021/05/27 02:15:44;;;;;;;9.98;5.50;;;;;;;8.85;100.00;100637.28;5032553;28;20044;-64
2021/05/27 02:18:28;;;;;;;11.88;5.93;;;;;;;8.86;100.00;100644.28;5032448;28;20080;-64
2021/05/27 02:21:12;;;;;;;10.02;6.40;;;;;;;8.86;100.00;100639.78;5033650;28;20056;-64
2021/05/27 02:23:58;;;;;;;11.27;6.85;;;;;;;8.84;100.00;100641.72;5018773;28;20126;-64
2021/05/27 02:26:42;;;;;;;8.55;6.70;;;;;;;8.78;100.00;100647.53;5032510;28;20052;-63
2021/05/27 02:29:26;;;;;;;13.68;6.35;;;;;;;8.79;100.00;100643.06;5032157;28;20098;-64
2021/05/27 02:32:10;;;;;;;10.45;6.30;;;;;;;8.76;100.00;100651.31;5032140;28;20052;-64
2021/05/27 02:34:54;;;;;;;10.95;6.88;;;;;;;8.75;100.00;100646.97;5032524;28;20421;-64
2021/05/27 02:37:38;;;;;;;9.60;6.38;;;;;;;8.73;100.00;100654.19;5032277;28;20057;-64
2021/05/27 02:40:22;;;;;;;8.98;5.82;;;;;;;8.72;100.00;100655.16;5033023;28;20088;-64
2021/05/27 02:43:06;;;;;;;8.32;6.15;;;;;;;8.69;100.00;100645.66;5032296;28;20110;-64
2021/05/27 02:45:50;;;;;;;8.43;6.18;;;;;;;8.65;100.00;100641.53;5032247;28;20052;-64
2021/05/27 02:48:34;;;;;;;10.57;6.05;;;;;;;8.63;100.00;100642.59;5032896;28;20090;-64
2021/05/27 02:51:18;;;;;;;8.73;6.80;;;;;;;8.65;100.00;100646.00;5032235;28;20095;-64
2021/05/27 02:54:03;;;;;;;10.23;6.07;;;;;;;8.60;100.00;100642.84;5032168;28;20048;-64
2021/05/27 02:56:47;;;;;;;7.93;6.40;;;;;;;8.64;100.00;100639.00;5032134;28;20091;-64
2021/05/27 02:59:31;;;;;;;10.38;6.97;;;;;;;8.63;100.00;100640.81;5032185;28;20099;-63
2021/05/27 03:02:15;;;;;;;8.45;5.93;;;;;;;8.58;100.00;100645.63;5016998;28;20068;-64
2021/05/27 03:04:58;;;;;;;8.07;6.32;;;;;;;8.55;100.00;100645.06;5030955;28;20056;-64
2021/05/27 03:07:42;;;;;;;10.73;6.40;;;;;;;8.61;100.00;100649.88;5032129;28;20424;-64
2021/05/27 03:10:26;;;;;;;8.57;6.35;;;;;;;8.64;100.00;100644.31;5031105;28;20133;-63
2021/05/27 03:13:10;;;;;;;8.98;6.50;;;;;;;8.65;100.00;100651.31;5030776;28;20128;-64
2021/05/27 03:15:55;;;;;;;12.35;6.38;;;;;;;8.68;100.00;100651.06;5031277;28;20115;-64
2021/05/27 03:18:38;;;;;;;9.30;6.07;;;;;;;8.72;100.00;100649.84;5030618;28;20136;-64
2021/05/27 03:21:23;;;;;;;9.63;5.97;;;;;;;8.80;100.00;100644.75;5030697;28;20087;-64
2021/05/27 03:24:07;;;;;;;9.73;5.88;;;;;;;8.80;100.00;100644.75;5031682;28;20552;-64
2021/05/27 03:26:52;;;;;;;7.97;6.05;;;;;;;8.83;100.00;100649.81;5031173;28;20051;-64
2021/05/27 03:29:36;;;;;;;10.57;6.10;;;;;;;8.90;100.00;100656.34;5030790;28;20048;-64
2021/05/27 03:32:20;;;;;;;11.18;6.03;;;;;;;8.96;100.00;100651.38;5031822;28;20133;-64
2021/05/27 03:35:05;;;;;;;12.73;5.80;;;;;;;9.06;100.00;100651.47;5030809;28;20449;-64
2021/05/27 03:37:49;;;;;;;9.48;5.93;;;;;;;9.11;100.00;100654.59;5032940;28;20103;-64
2021/05/27 03:40:34;;;;;;;10.48;5.80;;;;;;;9.13;100.00;100655.31;5034777;28;20509;-64
2021/05/27 03:43:17;;;;;;;6.75;5.35;;;;;;;9.18;100.00;100651.28;5035060;28;20175;-63
2021/05/27 03:46:02;;;;;;;9.32;6.03;;;;;;;9.26;100.00;100658.66;5034891;28;20045;-64
2021/05/27 03:48:46;;;;;;;9.85;6.20;;;;;;;9.31;100.00;100659.13;5033738;28;20098;-64
2021/05/27 03:51:29;;;;;;;12.48;6.38;;;;;;;9.34;100.00;100667.69;5034708;28;20469;-64
2021/05/27 03:54:13;;;;;;;7.78;5.90;;;;;;;9.40;100.00;100669.00;5033718;28;20131;-65
2021/05/27 03:56:57;;;;;;;7.90;5.85;;;;;;;9.43;100.00;100671.41;4996536;28;1085051;-65
2021/05/27 04:02:46;;;;;;;9.77;6.40;;;;;;;9.52;100.00;100673.31;5035034;28;20040;-64
2021/05/27 04:08:33;;;;;;;8.18;5.68;;;;;;;9.62;100.00;100674.22;5035588;28;20128;-64
2021/05/27 04:11:16;;;;;;;9.93;5.43;;;;;;;9.67;100.00;100680.03;5020841;28;20059;-64
2021/05/27 04:14:00;;;;;;;9.45;5.32;;;;;;;9.70;100.00;100679.75;5034696;28;20068;-64
2021/05/27 04:16:44;;;;;;;8.20;5.10;;;;;;;9.72;100.00;100677.81;5020648;28;20107;-64
2021/05/27 04:19:28;;;;;;;8.02;5.15;;;;;;;9.73;100.00;100682.16;5034598;28;20052;-64
2021/05/27 04:22:12;;;;;;;9.80;5.82;;;;;;;9.79;100.00;100674.47;5034783;28;20049;-63
2021/05/27 04:24:56;;;;;;;7.00;5.03;;;;;;;9.80;100.00;100670.84;5034196;28;20092;-64
2021/05/27 04:27:41;;;;;;;9.07;5.10;;;;;;;9.81;100.00;100675.19;5035138;28;20051;-64
2021/05/27 04:30:27;;;;;;;5.70;5.10;;;;;;;9.86;100.00;100680.13;5034454;28;20045;-63
2021/05/27 04:33:11;;;;;;;10.02;5.15;;;;;;;9.89;100.00;100682.56;5035433;28;20521;-64
2021/05/27 04:35:55;;;;;;;6.85;5.03;;;;;;;9.90;100.00;100677.09;5034359;28;20098;-63
2021/05/27 04:38:40;;;;;;;6.22;4.90;;;;;;;9.96;100.00;100678.38;5019938;28;20095;-63
2021/05/27 04:41:27;;;;;;;9.82;4.95;;;;;;;9.99;100.00;100680.81;5020208;28;20163;-64
2021/05/27 04:44:11;;;;;;;9.57;5.20;;;;;;;10.01;100.00;100686.84;5035111;28;20159;-64
2021/05/27 04:46:54;;;;;;;7.13;4.57;;;;;;;10.02;100.00;100684.09;5033871;28;20421;-64
2021/05/27 04:49:38;;;;;;;6.05;5.05;;;;;;;10.03;100.00;100683.13;5032828;28;20044;-64
2021/05/27 04:52:22;;;;;;;7.13;4.45;;;;;;;9.98;100.00;100685.28;5033942;28;20513;-64
2021/05/27 04:55:09;;;;;;;6.13;4.47;;;;;;;9.94;100.00;100686.53;5033937;28;20053;-64
2021/05/27 04:57:53;;;;;;;9.90;4.55;;;;;;;9.91;100.00;100688.59;5033733;28;20051;-64
2021/05/27 05:00:37;;;;;;;5.65;4.65;;;;;;;9.88;100.00;100683.53;5033660;28;20091;-64
2021/05/27 05:03:21;;;;;;;6.03;4.68;;;;;;;9.87;100.00;100689.84;5020032;28;20561;-64
2021/05/27 05:06:05;;;;;;;6.22;5.50;;;;;;;9.89;100.00;100695.88;5019992;28;20494;-64
2021/05/27 05:08:49;;;;;;;8.50;5.10;;;;;;;9.90;100.00;100694.91;5033617;28;20547;-64
2021/05/27 05:11:33;;;;;;;6.78;4.85;;;;;;;9.94;100.00;100698.97;5033666;28;20497;-64
2021/05/27 05:14:17;;;;;;;9.38;5.00;;;;;;;9.97;100.00;100706.72;5034524;28;20056;-64
2021/05/27 05:17:01;;;;;;;10.50;5.40;;;;;;;10.04;100.00;100699.91;5034468;28;20056;-64
2021/05/27 05:19:45;;;;;;;5.38;4.55;;;;;;;10.05;100.00;100702.47;5033442;28;20071;-64
2021/05/27 05:22:29;;;;;;;6.53;4.70;;;;;;;10.15;100.00;100721.16;5033425;28;20064;-64
2021/05/27 05:25:14;;;;;;;12.07;5.03;;;;;;;10.30;100.00;100715.38;5033163;28;20052;-64
2021/05/27 05:27:58;;;;;;;9.68;4.65;;;;;;;10.42;100.00;100707.16;5034180;28;20045;-64
2021/05/27 05:30:42;;;;;;;6.93;5.00;;;;;;;10.58;100.00;100720.00;5034440;28;20094;-64
2021/05/27 05:33:26;;;;;;;7.28;4.40;;;;;;;10.68;100.00;100703.09;5032956;28;20052;-64
2021/05/27 05:36:10;;;;;;;6.90;4.38;;;;;;;10.77;100.00;100702.25;5033831;28;20076;-65
2021/05/27 05:38:54;;;;;;;7.70;4.57;;;;;;;10.87;100.00;100705.78;5019062;28;20044;-64
2021/05/27 05:41:38;;;;;;;6.80;4.40;;;;;;;10.95;100.00;100708.63;5033027;28;20079;-64
2021/05/27 05:44:22;;;;;;;6.78;4.53;;;;;;;10.94;100.00;100717.63;5033740;28;20529;-64
2021/05/27 05:47:06;;;;;;;6.40;3.92;;;;;;;10.87;100.00;100710.31;5018917;28;20083;-65
2021/05/27 05:49:50;;;;;;;6.55;4.18;;;;;;;10.85;100.00;100721.09;5032685;28;20088;-63
2021/05/27 05:52:35;;;;;;;7.97;4.95;;;;;;;10.92;100.00;100716.91;5032574;28;20114;-64
2021/05/27 05:55:19;;;;;;;9.23;5.13;;;;;;;10.98;100.00;100711.03;5018893;28;20094;-64
2021/05/27 05:58:04;;;;;;;7.93;4.90;;;;;;;11.04;100.00;100710.50;5018472;28;20080;-64
2021/05/27 06:00:48;;;;;;;6.75;5.18;;;;;;;11.10;100.00;100715.28;5018416;28;20052;-64
2021/05/27 06:03:33;;;;;;;7.75;5.25;;;;;;;11.22;100.00;100710.66;5033044;28;20048;-64
2021/05/27 06:06:17;;;;;;;7.20;4.05;;;;;;;11.32;100.00;100715.06;5033603;28;20053;-64
2021/05/27 06:09:01;;;;;;;7.75;4.60;;;;;;;11.33;100.00;100703.41;5032322;28;20056;-64
2021/05/27 06:11:45;;;;;;;6.47;4.65;;;;;;;11.44;100.00;100708.59;5033803;28;20418;-64
2021/05/27 06:14:30;;;;;;;7.55;4.75;;;;;;;11.62;100.00;100704.28;5033656;28;20429;-65
2021/05/27 06:17:14;;;;;;;6.38;4.43;;;;;;;11.50;100.00;100725.88;5032369;28;20200;-64
2021/05/27 06:19:58;;;;;;;4.05;2.42;;;;;;;11.50;100.00;100734.75;5033159;28;20072;-65
2021/05/27 06:22:42;;;;;;;3.95;3.22;;;;;;;11.35;100.00;100728.13;5033736;28;20451;-64
2021/05/27 06:25:27;;;;;;;7.75;4.10;;;;;;;11.39;100.00;100734.84;5033140;28;20588;-64
2021/05/27 06:28:11;;;;;;;7.32;4.82;;;;;;;11.47;100.00;100724.34;5032225;28;20175;-63
2021/05/27 06:30:56;;;;;;;6.35;4.50;;;;;;;11.55;100.00;100728.97;5018433;28;20514;-64
2021/05/27 06:33:40;;;;;;;4.82;4.05;;;;;;;11.70;100.00;100730.28;5032415;28;20047;-65
2021/05/27 06:36:24;;;;;;;6.78;4.50;;;;;;;11.74;100.00;100740.56;5032297;28;20052;-64
2021/05/27 06:39:08;;;;;;;6.10;4.13;;;;;;;11.65;100.00;100744.06;5033109;28;20119;-64
2021/05/27 06:41:55;;;;;;;7.30;4.07;;;;;;;11.69;100.00;100737.44;5032242;28;20053;-64
2021/05/27 06:44:39;;;;;;;6.35;4.63;;;;;;;11.65;100.00;100733.38;5032313;28;20104;-64
2021/05/27 06:47:23;;;;;;;4.60;3.88;;;;;;;11.66;100.00;100743.09;5032221;28;20091;-65
2021/05/27 06:50:08;;;;;;;6.18;4.00;;;;;;;11.66;100.00;100751.09;5033238;28;20124;-65
2021/05/27 06:52:52;;;;;;;7.10;4.18;;;;;;;11.72;100.00;100731.00;5032954;28;20099;-65
2021/05/27 06:55:37;;;;;;;6.03;4.25;;;;;;;11.64;100.00;100745.06;5032168;28;20052;-63
2021/05/27 06:58:21;;;;;;;11.32;4.95;;;;;;;11.89;100.00;100730.28;5031675;28;20107;-65
2021/05/27 07:01:05;;;;;;;7.78;4.20;;;;;;;12.02;97.55;100728.16;5018047;28;20068;-64
2021/05/27 07:03:49;;;;;;;6.82;3.97;;;;;;;12.20;98.55;100727.28;5031831;28;20049;-64
2021/05/27 07:06:33;;;;;;;7.38;4.05;;;;;;;12.38;95.79;100725.56;5018130;28;20052;-64
2021/05/27 07:09:17;;;;;;;7.88;4.22;;;;;;;12.29;93.73;100731.78;5017857;28;20144;-64
2021/05/27 07:12:01;;;;;;;5.90;3.75;;;;;;;12.35;94.38;100728.53;5034026;28;20044;-65
2021/05/27 07:14:45;;;;;;;6.53;3.63;;;;;;;12.42;93.62;100728.81;5036899;28;20052;-64
2021/05/27 07:17:29;;;;;;;7.18;4.40;;;;;;;12.51;92.69;100728.75;5036634;28;20048;-64
2021/05/27 07:20:14;;;;;;;3.97;3.60;;;;;;;12.46;91.56;100747.09;5021560;28;20053;-64
2021/05/27 07:22:58;;;;;;;9.60;4.00;;;;;;;12.27;91.42;100747.13;5021651;28;20513;-65
2021/05/27 07:25:42;;;;;;;9.60;4.00;;;;;;;12.15;91.53;100737.59;5021665;28;20099;-65
2021/05/27 07:28:25;;;;;;;4.05;3.55;;;;;;;12.20;90.38;100748.66;5035473;28;20099;-65
2021/05/27 07:31:09;;;;;;;5.45;3.80;;;;;;;12.50;92.88;100748.47;5035465;28;20553;-64
2021/05/27 07:33:53;;;;;;;5.45;3.63;;;;;;;12.71;91.32;100735.72;5035571;28;20509;-64
2021/05/27 07:36:37;;;;;;;5.13;3.20;;;;;;;12.69;88.63;100735.03;5035290;28;20513;-64
2021/05/27 07:39:21;;;;;;;8.43;3.50;;;;;;;12.59;88.09;100741.44;5035135;28;20067;-64
2021/05/27 07:42:06;;;;;;;5.40;2.97;;;;;;;12.61;85.42;100734.94;5035367;28;20102;-65
2021/05/27 07:44:50;;;;;;;5.47;3.33;;;;;;;12.64;86.86;100734.66;5036236;28;20115;-64
2021/05/27 07:47:35;;;;;;;3.92;2.97;;;;;;;12.80;86.69;100744.72;5035907;28;20048;-65
2021/05/27 07:50:20;;;;;;;5.88;3.40;;;;;;;12.81;85.22;100736.53;5035221;28;20068;-65
2021/05/27 07:53:05;;;;;;;6.28;3.30;;;;;;;12.90;84.76;100741.88;5021564;28;20163;-65
2021/05/27 07:55:49;;;;;;;6.28;3.30;;;;;;;13.25;83.86;100725.91;5021818;28;20126;-64
2021/05/27 07:58:35;;;;;;;2.67;2.13;;;;;;;13.40;77.28;100745.88;5036320;28;20048;-65
2021/05/27 08:01:19;;;;;;;5.32;2.75;;;;;;;13.11;79.57;100728.25;5035885;28;20052;-65
2021/05/27 08:04:03;;;;;;;3.28;2.70;;;;;;;13.30;80.33;100729.00;5035655;28;20072;-65
2021/05/27 08:06:47;;;;;;;3.55;2.75;;;;;;;13.73;78.56;100736.31;5020775;28;20067;-65
2021/05/27 08:09:31;;;;;;;4.22;2.33;;;;;;;13.67;73.60;100748.47;5035627;28;20159;-65
2021/05/27 08:12:15;;;;;;;4.82;2.70;;;;;;;13.89;75.50;100741.81;5020819;28;20521;-65
2021/05/27 08:14:59;;;;;;;3.42;2.53;;;;;;;13.87;71.31;100747.31;5035404;28;20048;-65
2021/05/27 08:17:43;;;;;;;6.88;2.50;;;;;;;13.92;70.09;100737.00;5035935;28;20414;-64
2021/05/27 08:20:27;;;;;;;3.17;2.20;;;;;;;14.14;70.07;100736.50;5035723;28;20468;-65
2021/05/27 08:23:11;;;;;;;2.88;2.03;;;;;;;14.29;70.63;100753.75;5035536;28;20052;-65
2021/05/27 08:25:54;;;;;;;3.55;2.22;;;;;;;14.37;68.05;100747.63;5035533;28;20048;-65
2021/05/27 08:28:38;;;;;;;3.30;2.00;;;;;;;14.37;71.72;100747.63;5035483;28;20076;-65
2021/05/27 08:31:22;;;;;;;5.28;2.42;;;;;;;14.43;71.32;100746.97;5034253;28;20126;-65
2021/05/27 08:34:08;;;;;;;4.82;2.15;;;;;;;14.50;69.15;100748.88;5035599;28;20556;-64
2021/05/27 08:36:52;;;;;;;4.40;2.30;;;;;;;14.65;68.09;100741.94;5034004;28;20056;-64
2021/05/27 08:39:36;;;;;;;3.53;2.28;;;;;;;14.48;66.98;100755.41;5033872;28;20215;-65
2021/05/27 08:42:21;;;;;;;5.82;2.10;;;;;;;14.45;70.21;100756.56;5033986;28;20076;-64
2021/05/27 08:45:07;;;;;;;4.65;2.33;;;;;;;14.50;69.50;100762.28;5034000;28;20103;-66
2021/05/27 08:47:51;;;;;;;4.15;2.45;;;;;;;14.19;68.22;100761.03;5020288;28;20134;-65
2021/05/27 08:50:44;;;;;;;4.38;2.50;;;;;;;14.26;70.39;100766.66;5033872;28;20043;-64
2021/05/27 08:53:28;;;;;;;3.17;1.98;;;;;;;14.15;68.17;100778.41;5034651;28;20124;-64
2021/05/27 08:56:12;;;;;;;4.68;2.63;;;;;;;13.99;68.70;100764.03;5035202;28;20055;-65
2021/05/27 08:58:56;;;;;;;5.53;2.35;;;;;;;13.94;70.88;100769.00;5034323;28;20052;-65
2021/05/27 09:01:59;;;;;;;3.40;2.10;;;;;;;13.94;70.69;100771.69;5033874;28;20075;-63
2021/05/27 09:04:43;;;;;;;6.60;2.25;;;;;;;14.04;72.04;100775.97;5034663;28;20425;-65
2021/05/27 09:07:41;;;;;;;7.05;2.30;;;;;;;14.16;69.43;100774.72;5019709;28;20076;-65
2021/05/27 09:11:02;;;;;;;3.25;2.60;;;;;;;14.09;71.61;100776.34;5033713;28;20125;-65
2021/05/27 09:14:00;;;;;;;3.33;2.30;;;;;;;13.98;71.01;100778.44;5033435;28;20041;-65
2021/05/27 09:16:58;;;;;;;6.07;2.33;;;;;;;14.13;70.07;100776.88;5033045;28;20084;-65
2021/05/27 09:19:42;;;;;;;6.93;2.40;;;;;;;14.27;70.52;100779.88;5019612;28;20048;-65
2021/05/27 09:22:26;;;;;;;2.83;2.50;;;;;;;14.04;72.23;100777.81;5034506;28;20099;-65
2021/05/27 09:25:24;;;;;;;7.43;2.75;;;;;;;14.04;72.40;100783.16;5034061;28;20138;-65
2021/05/27 09:28:09;;;;;;;3.67;2.20;;;;;;;14.05;72.10;100779.47;5033274;28;20048;-65
2021/05/27 09:30:56;;;;;;;2.83;2.10;;;;;;;14.25;71.28;100778.34;5019618;28;20516;-65
2021/05/27 09:33:42;;;;;;;4.82;2.05;;;;;;;14.19;70.47;100795.06;5033095;28;20048;-65
2021/05/27 09:36:26;;;;;;;5.53;2.30;;;;;;;14.12;70.53;100791.28;5032727;28;20206;-65
2021/05/27 09:39:10;;;;;;;3.72;1.98;;;;;;;14.29;70.49;100782.41;5019217;28;20060;-66
2021/05/27 09:42:00;;;;;;;5.82;2.13;;;;;;;14.19;69.25;100787.84;5033254;28;20405;-65
2021/05/27 09:44:44;;;;;;;2.45;1.70;;;;;;;14.31;70.04;100785.78;5033752;28;20457;-66
2021/05/27 09:47:31;;;;;;;6.63;2.03;;;;;;;14.54;68.61;100793.19;5032944;28;20052;-66
2021/05/27 09:50:16;;;;;;;5.35;2.10;;;;;;;14.49;68.49;100789.28;5032740;28;20052;-65
2021/05/27 09:53:15;;;;;;;4.63;1.80;;;;;;;14.40;67.35;100796.41;5034124;28;20130;-65
2021/05/27 09:56:01;;;;;;;3.70;1.90;;;;;;;14.48;68.55;100798.34;5033812;28;20095;-65
2021/05/27 09:58:52;;;;;;;5.22;2.17;;;;;;;14.46;68.10;100795.81;5033281;28;20052;-65
2021/05/27 10:01:37;;;;;;;4.22;1.85;;;;;;;14.56;68.39;100795.69;5033397;28;20217;-64
2021/05/27 10:04:21;;;;;;;6.85;2.10;;;;;;;14.49;66.35;100791.97;5032846;28;20052;-65
2021/05/27 10:07:05;;;;;;;4.18;1.63;;;;;;;14.48;67.29;100790.28;5033350;28;20179;-65
2021/05/27 10:09:50;;;;;;;6.50;2.20;;;;;;;14.48;68.41;100782.25;5032622;28;20109;-65
2021/05/27 10:12:46;;;;;;;4.07;1.85;;;;;;;14.49;68.35;100784.75;5032718;28;20517;-67
2021/05/27 10:15:30;;;;;;;2.58;1.80;;;;;;;14.67;67.24;100787.41;5018645;28;20052;-65
2021/05/27 10:18:18;;;;;;;2.28;1.90;;;;;;;14.82;67.35;100773.25;5033356;28;20108;-65
2021/05/27 10:21:04;;;;;;;3.00;1.65;;;;;;;14.93;67.92;100783.72;5032668;28;20083;-64
2021/05/27 10:23:49;;;;;;;3.42;1.80;;;;;;;14.92;65.97;100787.38;5032359;28;20047;-65
2021/05/27 10:26:33;;;;;;;4.38;1.75;;;;;;;14.85;66.67;100780.13;5032731;28;20071;-66
2021/05/27 10:29:21;;;;;;;5.07;2.13;;;;;;;14.86;67.02;100781.78;5032332;28;20101;-65
2021/05/27 10:32:05;;;;;;;3.42;2.28;;;;;;;14.83;66.63;100782.97;5018505;28;20045;-66
2021/05/27 10:34:50;;;;;;;5.20;2.20;;;;;;;14.92;66.26;100786.53;5032092;28;20056;-65
2021/05/27 10:37:36;;;;;;;4.75;1.88;;;;;;;15.03;65.90;100778.22;5032459;28;20052;-65
2021/05/27 10:40:20;;;;;;;3.20;1.63;;;;;;;15.34;65.84;100785.63;5032953;28;20048;-65
2021/05/27 10:43:10;;;;;;;4.22;1.50;;;;;;;15.53;62.22;100776.44;5033262;28;20426;-66
2021/05/27 10:45:57;;;;;;;6.05;2.00;;;;;;;15.53;63.08;100779.94;5032309;28;20048;-65
2021/05/27 10:48:46;;;;;;;3.92;1.70;;;;;;;15.79;63.21;100773.50;5036983;28;20141;-65
2021/05/27 10:51:37;;;;;;;4.57;2.08;;;;;;;16.00;61.95;100770.31;5037153;28;20048;-65
2021/05/27 10:54:28;;;;;;;3.42;1.40;;;;;;;15.66;61.25;100785.72;5036255;28;20107;-65
2021/05/27 10:57:41;;;;;;;4.13;1.90;;;;;;;15.95;60.06;100778.88;5021946;28;20573;-65
2021/05/27 11:00:31;;;;;;;3.90;1.75;;;;;;;16.33;58.71;100778.22;5036808;28;20045;-64
2021/05/27 11:03:41;;;;;;;3.20;1.75;;;;;;;16.28;58.27;100780.56;5036984;28;20111;-65
2021/05/27 11:06:30;;;;;;;3.97;1.90;;;;;;;16.70;59.97;100780.41;5036862;28;20498;-65
2021/05/27 11:09:15;;;;;;;4.13;1.90;;;;;;;16.62;57.10;100781.28;5036499;28;20051;-65
2021/05/27 11:12:11;;;;;;;2.70;1.77;;;;;;;16.31;56.83;100774.88;5035886;28;20044;-66
2021/05/27 11:15:05;;;;;;;3.90;1.60;;;;;;;16.57;57.11;100775.53;5035860;28;20560;-65
2021/05/27 11:18:06;;;;;;;3.03;1.33;;;;;;;17.26;56.85;100759.53;5035426;28;20418;-65
2021/05/27 11:20:57;;;;;;;6.78;1.70;;;;;;;17.86;57.24;100767.81;5035374;28;20076;-65
2021/05/27 11:27:28;;;;;;;5.65;1.55;;;;;;;17.35;55.14;100761.22;5035438;28;20103;-65
2021/05/27 11:30:18;;;;;;;5.10;1.50;;;;;;;17.51;58.22;100755.72;5035532;28;20044;-66
2021/05/27 11:33:14;;;;;;;2.08;1.40;;;;;;;17.55;57.43;100756.22;5036448;28;20570;-65
2021/05/27 11:36:07;;;;;;;4.35;1.90;;;;;;;18.06;55.66;100759.09;5036497;28;20457;-65
2021/05/27 11:38:52;;;;;;;4.78;1.58;;;;;;;19.05;53.91;100755.94;5034931;28;20048;-65
2021/05/27 11:41:38;;;;;;;2.42;1.40;;;;;;;18.44;50.48;100756.25;5035262;28;20036;-64
2021/05/27 11:44:22;;;;;;;3.47;1.40;;;;;;;19.27;52.58;100748.78;5035917;28;20124;-65
2021/05/27 11:47:06;;;;;;;5.72;1.63;;;;;;;20.53;44.37;100746.19;5036436;28;20079;-65
2021/05/27 11:50:09;;;;;;;3.97;1.65;;;;;;;20.06;46.87;100745.97;5035038;28;20433;-65
2021/05/27 11:52:57;;;;;;;4.40;1.38;;;;;;;19.59;46.42;100765.41;5035654;28;20151;-65
2021/05/27 11:55:41;;;;;;;1.92;1.10;;;;;;;18.32;50.69;100766.84;5034612;28;20052;-64
2021/05/27 11:58:35;;;;;;;3.95;1.20;;;;;;;18.47;49.03;100755.88;5035402;28;20125;-65
2021/05/27 12:01:22;;;;;;;1.90;1.20;;;;;;;18.43;48.66;100753.72;5034806;28;20053;-64
2021/05/27 12:04:17;;;;;;;1.20;1.10;;;;;;;18.66;48.39;100752.66;5034635;28;20092;-65
2021/05/27 12:07:11;;;;;;;1.98;1.08;;;;;;;20.33;44.50;100734.34;5035640;28;20076;-66
2021/05/27 12:10:04;;;;;;;1.83;1.10;;;;;;;20.65;40.67;100744.59;5035044;28;20067;-65
2021/05/27 12:12:48;;;;;;;4.70;1.20;;;;;;;19.16;45.49;100738.41;5034528;28;20063;-66
2021/05/27 12:15:32;;;;;;;4.10;1.17;;;;;;;19.09;47.62;100748.31;5020624;28;20048;-65
2021/05/27 12:18:17;;;;;;;2.45;0.90;;;;;;;19.02;47.45;100747.38;5035277;28;20052;-65
2021/05/27 12:21:02;;;;;;;3.95;1.17;;;;;;;18.72;49.02;100754.63;5034467;28;20519;-65
2021/05/27 12:23:45;;;;;;;1.38;1.27;;;;;;;18.71;47.43;100749.41;5034586;28;20071;-65
2021/05/27 12:26:29;;;;;;;1.20;1.10;;;;;;;18.87;49.01;100755.47;5020757;28;20095;-65
2021/05/27 12:29:13;;;;;;;1.10;1.00;;;;;;;19.03;46.30;100743.63;5035049;28;20528;-65
2021/05/27 12:31:57;;;;;;;3.03;1.10;;;;;;;18.86;48.07;100742.16;5020589;28;20572;-65
2021/05/27 12:34:41;;;;;;;4.20;1.08;;;;;;;18.52;48.36;100747.22;5034035;28;20079;-65
2021/05/27 12:37:39;;;;;;;1.23;1.10;;;;;;;18.44;49.46;100745.44;5033951;28;20057;-65
2021/05/27 12:40:33;;;;;;;1.63;1.10;;;;;;;17.80;48.93;100747.78;5020165;28;20056;-65
2021/05/27 12:43:26;;;;;;;3.13;1.40;;;;;;;17.84;51.23;100751.84;5034192;28;20490;-66
2021/05/27 12:46:11;;;;;;;1.30;1.20;;;;;;;18.43;47.41;100753.72;5033767;28;20099;-65
2021/05/27 12:48:57;;;;;;;1.95;1.25;;;;;;;20.00;45.56;100742.13;5034573;28;20056;-65
2021/05/27 12:51:41;;;;;;;1.30;1.20;;;;;;;20.29;42.26;100752.84;5033867;28;20098;-65
2021/05/27 12:54:26;;;;;;;2.80;1.35;;;;;;;20.39;44.34;100747.94;5034911;28;20076;-65
2021/05/27 12:57:12;;;;;;;1.65;1.00;;;;;;;20.21;44.25;100746.75;5033602;28;20092;-65
2021/05/27 12:59:57;;;;;;;1.88;1.10;;;;;;;19.19;46.68;100751.59;5033589;28;20040;-65